sensor_id;sensor_type;location;lat;lon;timestamp;P1;durP1;ratioP1;P2;durP2;ratioP2
55007;SDS011;40902;45.116;21.296;2024-01-30T00:01:41;28.00;;;17.10;;
55007;SDS011;40902;45.116;21.296;2024-01-30T00:04:07;25.70;;;15.82;;
55007;SDS011;40902;45.116;21.296;2024-01-30T00:06:33;28.17;;;16.75;;
55007;SDS011;40902;45.116;21.296;2024-01-30T00:08:59;23.55;;;15.52;;
55007;SDS011;40902;45.116;21.296;2024-01-30T00:11:24;22.58;;;15.07;;
55007;SDS011;40902;45.116;21.296;2024-01-30T00:13:51;23.33;;;14.90;;
55007;SDS011;40902;45.116;21.296;2024-01-30T00:16:20;24.05;;;15.60;;
55007;SDS011;40902;45.116;21.296;2024-01-30T00:18:47;23.83;;;15.18;;
55007;SDS011;40902;45.116;21.296;2024-01-30T00:21:13;23.00;;;15.48;;
55007;SDS011;40902;45.116;21.296;2024-01-30T00:23:39;23.35;;;14.45;;
55007;SDS011;40902;45.116;21.296;2024-01-30T00:26:06;20.65;;;13.80;;
55007;SDS011;40902;45.116;21.296;2024-01-30T00:28:31;17.60;;;13.13;;
55007;SDS011;40902;45.116;21.296;2024-01-30T00:30:57;19.73;;;12.52;;
55007;SDS011;40902;45.116;21.296;2024-01-30T00:33:23;18.95;;;13.05;;
55007;SDS011;40902;45.116;21.296;2024-01-30T00:35:49;19.92;;;13.18;;
55007;SDS011;40902;45.116;21.296;2024-01-30T00:38:14;22.08;;;14.02;;
55007;SDS011;40902;45.116;21.296;2024-01-30T00:40:40;21.50;;;13.32;;
55007;SDS011;40902;45.116;21.296;2024-01-30T00:43:06;21.17;;;13.88;;
55007;SDS011;40902;45.116;21.296;2024-01-30T00:45:32;22.10;;;14.52;;
55007;SDS011;40902;45.116;21.296;2024-01-30T00:47:57;19.98;;;13.95;;
55007;SDS011;40902;45.116;21.296;2024-01-30T00:50:23;20.20;;;13.02;;
55007;SDS011;40902;45.116;21.296;2024-01-30T00:52:49;19.42;;;13.30;;
55007;SDS011;40902;45.116;21.296;2024-01-30T00:55:15;18.27;;;12.35;;
55007;SDS011;40902;45.116;21.296;2024-01-30T00:57:41;19.17;;;12.73;;
55007;SDS011;40902;45.116;21.296;2024-01-30T01:00:07;18.13;;;12.57;;
55007;SDS011;40902;45.116;21.296;2024-01-30T01:02:34;17.65;;;12.40;;
55007;SDS011;40902;45.116;21.296;2024-01-30T01:05:00;18.98;;;12.98;;
55007;SDS011;40902;45.116;21.296;2024-01-30T01:07:26;20.85;;;12.68;;
55007;SDS011;40902;45.116;21.296;2024-01-30T01:09:52;18.48;;;12.93;;
55007;SDS011;40902;45.116;21.296;2024-01-30T01:12:18;18.90;;;12.02;;
55007;SDS011;40902;45.116;21.296;2024-01-30T01:14:44;16.98;;;11.80;;
55007;SDS011;40902;45.116;21.296;2024-01-30T01:17:09;16.10;;;11.88;;
55007;SDS011;40902;45.116;21.296;2024-01-30T01:19:35;19.05;;;12.02;;
55007;SDS011;40902;45.116;21.296;2024-01-30T01:22:01;17.48;;;11.48;;
55007;SDS011;40902;45.116;21.296;2024-01-30T01:24:28;17.80;;;11.82;;
55007;SDS011;40902;45.116;21.296;2024-01-30T01:26:55;18.25;;;12.57;;
55007;SDS011;40902;45.116;21.296;2024-01-30T01:29:22;17.98;;;11.43;;
55007;SDS011;40902;45.116;21.296;2024-01-30T01:31:53;17.83;;;11.90;;
55007;SDS011;40902;45.116;21.296;2024-01-30T01:34:23;16.60;;;11.20;;
55007;SDS011;40902;45.116;21.296;2024-01-30T01:36:49;18.10;;;11.43;;
55007;SDS011;40902;45.116;21.296;2024-01-30T01:39:15;16.58;;;12.25;;
55007;SDS011;40902;45.116;21.296;2024-01-30T01:41:41;18.02;;;12.77;;
55007;SDS011;40902;45.116;21.296;2024-01-30T01:44:07;19.30;;;13.05;;
55007;SDS011;40902;45.116;21.296;2024-01-30T01:46:34;17.35;;;12.82;;
55007;SDS011;40902;45.116;21.296;2024-01-30T01:49:00;15.18;;;10.93;;
55007;SDS011;40902;45.116;21.296;2024-01-30T01:51:28;16.92;;;11.60;;
55007;SDS011;40902;45.116;21.296;2024-01-30T01:53:56;15.68;;;11.43;;
55007;SDS011;40902;45.116;21.296;2024-01-30T01:56:23;15.70;;;10.77;;
55007;SDS011;40902;45.116;21.296;2024-01-30T01:58:51;15.32;;;10.63;;
55007;SDS011;40902;45.116;21.296;2024-01-30T02:01:19;16.50;;;11.65;;
55007;SDS011;40902;45.116;21.296;2024-01-30T02:03:47;17.50;;;12.35;;
55007;SDS011;40902;45.116;21.296;2024-01-30T02:06:13;16.05;;;11.35;;
55007;SDS011;40902;45.116;21.296;2024-01-30T02:08:41;17.15;;;11.73;;
55007;SDS011;40902;45.116;21.296;2024-01-30T02:11:07;17.75;;;10.98;;
55007;SDS011;40902;45.116;21.296;2024-01-30T02:13:33;18.33;;;12.10;;
55007;SDS011;40902;45.116;21.296;2024-01-30T02:15:59;16.95;;;10.93;;
55007;SDS011;40902;45.116;21.296;2024-01-30T02:18:26;19.20;;;12.02;;
55007;SDS011;40902;45.116;21.296;2024-01-30T02:20:53;16.98;;;11.75;;
55007;SDS011;40902;45.116;21.296;2024-01-30T02:23:20;15.88;;;11.57;;
55007;SDS011;40902;45.116;21.296;2024-01-30T02:25:50;18.20;;;12.30;;
55007;SDS011;40902;45.116;21.296;2024-01-30T02:28:18;16.98;;;11.02;;
55007;SDS011;40902;45.116;21.296;2024-01-30T02:30:44;17.27;;;11.40;;
55007;SDS011;40902;45.116;21.296;2024-01-30T02:33:11;17.90;;;11.95;;
55007;SDS011;40902;45.116;21.296;2024-01-30T02:35:40;17.10;;;12.35;;
55007;SDS011;40902;45.116;21.296;2024-01-30T02:38:05;17.83;;;12.80;;
55007;SDS011;40902;45.116;21.296;2024-01-30T02:40:31;20.75;;;12.15;;
55007;SDS011;40902;45.116;21.296;2024-01-30T02:42:58;16.50;;;11.60;;
55007;SDS011;40902;45.116;21.296;2024-01-30T02:45:25;17.25;;;11.02;;
55007;SDS011;40902;45.116;21.296;2024-01-30T02:47:50;17.35;;;11.05;;
55007;SDS011;40902;45.116;21.296;2024-01-30T02:50:16;17.92;;;11.25;;
55007;SDS011;40902;45.116;21.296;2024-01-30T02:52:42;17.58;;;11.25;;
55007;SDS011;40902;45.116;21.296;2024-01-30T02:55:11;17.42;;;11.63;;
55007;SDS011;40902;45.116;21.296;2024-01-30T02:57:37;15.60;;;10.80;;
55007;SDS011;40902;45.116;21.296;2024-01-30T03:00:03;17.27;;;11.52;;
55007;SDS011;40902;45.116;21.296;2024-01-30T03:02:31;15.98;;;11.07;;
55007;SDS011;40902;45.116;21.296;2024-01-30T03:04:57;18.48;;;11.50;;
55007;SDS011;40902;45.116;21.296;2024-01-30T03:07:24;16.75;;;11.48;;
55007;SDS011;40902;45.116;21.296;2024-01-30T03:09:50;18.33;;;11.90;;
55007;SDS011;40902;45.116;21.296;2024-01-30T03:12:15;17.20;;;10.63;;
55007;SDS011;40902;45.116;21.296;2024-01-30T03:14:41;15.35;;;10.45;;
55007;SDS011;40902;45.116;21.296;2024-01-30T03:17:07;13.95;;;10.63;;
55007;SDS011;40902;45.116;21.296;2024-01-30T03:19:33;15.07;;;10.48;;
55007;SDS011;40902;45.116;21.296;2024-01-30T03:21:59;15.73;;;10.13;;
55007;SDS011;40902;45.116;21.296;2024-01-30T03:24:25;16.33;;;10.27;;
55007;SDS011;40902;45.116;21.296;2024-01-30T03:26:50;13.77;;;9.45;;
55007;SDS011;40902;45.116;21.296;2024-01-30T03:29:16;14.52;;;9.70;;
55007;SDS011;40902;45.116;21.296;2024-01-30T03:31:42;14.40;;;9.50;;
55007;SDS011;40902;45.116;21.296;2024-01-30T03:34:08;14.93;;;9.52;;
55007;SDS011;40902;45.116;21.296;2024-01-30T03:36:34;13.85;;;9.27;;
55007;SDS011;40902;45.116;21.296;2024-01-30T03:38:59;14.95;;;9.93;;
55007;SDS011;40902;45.116;21.296;2024-01-30T03:41:26;14.57;;;9.32;;
55007;SDS011;40902;45.116;21.296;2024-01-30T03:43:52;11.70;;;8.15;;
55007;SDS011;40902;45.116;21.296;2024-01-30T03:46:18;13.32;;;8.90;;
55007;SDS011;40902;45.116;21.296;2024-01-30T03:48:44;14.70;;;9.15;;
55007;SDS011;40902;45.116;21.296;2024-01-30T03:51:11;12.30;;;8.40;;
55007;SDS011;40902;45.116;21.296;2024-01-30T03:53:40;12.15;;;8.55;;
55007;SDS011;40902;45.116;21.296;2024-01-30T03:56:06;12.73;;;8.93;;
55007;SDS011;40902;45.116;21.296;2024-01-30T03:58:32;12.70;;;9.00;;
55007;SDS011;40902;45.116;21.296;2024-01-30T04:00:58;12.80;;;9.10;;
55007;SDS011;40902;45.116;21.296;2024-01-30T04:03:24;13.77;;;8.88;;
55007;SDS011;40902;45.116;21.296;2024-01-30T04:05:51;13.80;;;9.25;;
55007;SDS011;40902;45.116;21.296;2024-01-30T04:08:17;14.52;;;10.05;;
55007;SDS011;40902;45.116;21.296;2024-01-30T04:10:43;16.10;;;10.82;;
55007;SDS011;40902;45.116;21.296;2024-01-30T04:13:09;14.80;;;10.65;;
55007;SDS011;40902;45.116;21.296;2024-01-30T04:15:35;14.57;;;9.57;;
55007;SDS011;40902;45.116;21.296;2024-01-30T04:18:01;17.65;;;10.02;;
55007;SDS011;40902;45.116;21.296;2024-01-30T04:20:27;13.90;;;9.52;;
55007;SDS011;40902;45.116;21.296;2024-01-30T04:22:52;13.45;;;9.57;;
55007;SDS011;40902;45.116;21.296;2024-01-30T04:25:18;13.75;;;9.50;;
55007;SDS011;40902;45.116;21.296;2024-01-30T04:27:44;13.05;;;8.98;;
55007;SDS011;40902;45.116;21.296;2024-01-30T04:30:10;12.05;;;8.48;;
55007;SDS011;40902;45.116;21.296;2024-01-30T04:32:36;14.85;;;8.73;;
55007;SDS011;40902;45.116;21.296;2024-01-30T04:35:02;13.10;;;8.98;;
55007;SDS011;40902;45.116;21.296;2024-01-30T04:37:28;11.77;;;8.68;;
55007;SDS011;40902;45.116;21.296;2024-01-30T04:39:54;14.63;;;9.43;;
55007;SDS011;40902;45.116;21.296;2024-01-30T04:42:20;11.77;;;7.85;;
55007;SDS011;40902;45.116;21.296;2024-01-30T04:44:46;13.07;;;8.52;;
55007;SDS011;40902;45.116;21.296;2024-01-30T04:47:11;14.05;;;8.77;;
55007;SDS011;40902;45.116;21.296;2024-01-30T04:49:40;13.30;;;8.95;;
55007;SDS011;40902;45.116;21.296;2024-01-30T04:52:07;13.63;;;9.63;;
55007;SDS011;40902;45.116;21.296;2024-01-30T04:54:34;13.80;;;9.02;;
55007;SDS011;40902;45.116;21.296;2024-01-30T04:57:00;12.65;;;8.50;;
55007;SDS011;40902;45.116;21.296;2024-01-30T04:59:26;12.60;;;9.43;;
55007;SDS011;40902;45.116;21.296;2024-01-30T05:01:52;14.63;;;9.85;;
55007;SDS011;40902;45.116;21.296;2024-01-30T05:04:18;14.75;;;10.18;;
55007;SDS011;40902;45.116;21.296;2024-01-30T05:06:44;14.93;;;10.73;;
55007;SDS011;40902;45.116;21.296;2024-01-30T05:09:10;14.02;;;9.70;;
55007;SDS011;40902;45.116;21.296;2024-01-30T05:11:37;13.68;;;9.85;;
55007;SDS011;40902;45.116;21.296;2024-01-30T05:14:06;13.77;;;9.73;;
55007;SDS011;40902;45.116;21.296;2024-01-30T05:16:33;16.33;;;9.10;;
55007;SDS011;40902;45.116;21.296;2024-01-30T05:18:59;13.65;;;9.30;;
55007;SDS011;40902;45.116;21.296;2024-01-30T05:21:25;13.07;;;9.68;;
55007;SDS011;40902;45.116;21.296;2024-01-30T05:23:51;15.48;;;9.18;;
55007;SDS011;40902;45.116;21.296;2024-01-30T05:26:17;15.48;;;10.13;;
55007;SDS011;40902;45.116;21.296;2024-01-30T05:28:43;13.18;;;9.48;;
55007;SDS011;40902;45.116;21.296;2024-01-30T05:31:11;12.73;;;9.20;;
55007;SDS011;40902;45.116;21.296;2024-01-30T05:33:37;13.10;;;9.48;;
55007;SDS011;40902;45.116;21.296;2024-01-30T05:36:03;12.55;;;9.35;;
55007;SDS011;40902;45.116;21.296;2024-01-30T05:38:29;11.45;;;8.65;;
55007;SDS011;40902;45.116;21.296;2024-01-30T05:40:55;12.77;;;8.45;;
55007;SDS011;40902;45.116;21.296;2024-01-30T05:43:23;11.25;;;8.60;;
55007;SDS011;40902;45.116;21.296;2024-01-30T05:45:49;12.77;;;9.07;;
55007;SDS011;40902;45.116;21.296;2024-01-30T05:48:15;12.85;;;9.23;;
55007;SDS011;40902;45.116;21.296;2024-01-30T05:50:41;11.65;;;9.05;;
55007;SDS011;40902;45.116;21.296;2024-01-30T05:53:06;12.70;;;8.85;;
55007;SDS011;40902;45.116;21.296;2024-01-30T05:55:32;13.07;;;9.98;;
55007;SDS011;40902;45.116;21.296;2024-01-30T05:57:58;12.18;;;9.43;;
55007;SDS011;40902;45.116;21.296;2024-01-30T06:00:24;12.80;;;9.15;;
55007;SDS011;40902;45.116;21.296;2024-01-30T06:02:49;11.45;;;8.80;;
55007;SDS011;40902;45.116;21.296;2024-01-30T06:05:15;12.88;;;9.07;;
55007;SDS011;40902;45.116;21.296;2024-01-30T06:07:41;11.52;;;9.45;;
55007;SDS011;40902;45.116;21.296;2024-01-30T06:10:07;12.23;;;9.18;;
55007;SDS011;40902;45.116;21.296;2024-01-30T06:12:34;12.75;;;9.70;;
55007;SDS011;40902;45.116;21.296;2024-01-30T06:15:00;14.88;;;11.75;;
55007;SDS011;40902;45.116;21.296;2024-01-30T06:17:26;14.65;;;12.40;;
55007;SDS011;40902;45.116;21.296;2024-01-30T06:19:52;19.73;;;16.33;;
55007;SDS011;40902;45.116;21.296;2024-01-30T06:22:17;15.93;;;13.85;;
55007;SDS011;40902;45.116;21.296;2024-01-30T06:24:43;13.38;;;10.48;;
55007;SDS011;40902;45.116;21.296;2024-01-30T06:27:15;13.35;;;10.48;;
55007;SDS011;40902;45.116;21.296;2024-01-30T06:29:42;12.02;;;9.30;;
55007;SDS011;40902;45.116;21.296;2024-01-30T06:32:08;13.00;;;9.40;;
55007;SDS011;40902;45.116;21.296;2024-01-30T06:34:34;11.23;;;8.90;;
55007;SDS011;40902;45.116;21.296;2024-01-30T06:37:00;11.75;;;9.65;;
55007;SDS011;40902;45.116;21.296;2024-01-30T06:39:26;11.05;;;9.45;;
55007;SDS011;40902;45.116;21.296;2024-01-30T06:41:52;10.85;;;9.10;;
55007;SDS011;40902;45.116;21.296;2024-01-30T06:44:17;10.65;;;9.13;;
55007;SDS011;40902;45.116;21.296;2024-01-30T06:46:43;10.32;;;9.07;;
55007;SDS011;40902;45.116;21.296;2024-01-30T06:49:09;10.98;;;9.48;;
55007;SDS011;40902;45.116;21.296;2024-01-30T06:51:35;13.10;;;10.25;;
55007;SDS011;40902;45.116;21.296;2024-01-30T06:54:00;12.82;;;9.48;;
55007;SDS011;40902;45.116;21.296;2024-01-30T06:56:27;13.70;;;10.02;;
55007;SDS011;40902;45.116;21.296;2024-01-30T06:58:53;13.77;;;10.23;;
55007;SDS011;40902;45.116;21.296;2024-01-30T07:01:19;14.48;;;10.13;;
55007;SDS011;40902;45.116;21.296;2024-01-30T07:03:45;17.45;;;10.55;;
55007;SDS011;40902;45.116;21.296;2024-01-30T07:06:11;12.68;;;9.60;;
55007;SDS011;40902;45.116;21.296;2024-01-30T07:08:37;15.77;;;10.55;;
55007;SDS011;40902;45.116;21.296;2024-01-30T07:11:04;14.38;;;10.13;;
55007;SDS011;40902;45.116;21.296;2024-01-30T07:13:31;18.30;;;14.02;;
55007;SDS011;40902;45.116;21.296;2024-01-30T07:15:57;18.92;;;14.20;;
55007;SDS011;40902;45.116;21.296;2024-01-30T07:18:23;17.95;;;13.02;;
55007;SDS011;40902;45.116;21.296;2024-01-30T07:20:49;13.85;;;11.27;;
55007;SDS011;40902;45.116;21.296;2024-01-30T07:23:15;13.25;;;10.82;;
55007;SDS011;40902;45.116;21.296;2024-01-30T07:25:46;16.35;;;11.68;;
55007;SDS011;40902;45.116;21.296;2024-01-30T07:28:14;14.00;;;12.18;;
55007;SDS011;40902;45.116;21.296;2024-01-30T07:30:43;13.73;;;11.68;;
55007;SDS011;40902;45.116;21.296;2024-01-30T07:33:08;13.90;;;10.88;;
55007;SDS011;40902;45.116;21.296;2024-01-30T07:35:35;15.95;;;10.55;;
55007;SDS011;40902;45.116;21.296;2024-01-30T07:38:01;14.45;;;10.90;;
55007;SDS011;40902;45.116;21.296;2024-01-30T07:40:27;13.23;;;11.18;;
55007;SDS011;40902;45.116;21.296;2024-01-30T07:42:53;13.45;;;10.55;;
55007;SDS011;40902;45.116;21.296;2024-01-30T07:45:19;13.82;;;10.32;;
55007;SDS011;40902;45.116;21.296;2024-01-30T07:47:49;13.95;;;10.98;;
55007;SDS011;40902;45.116;21.296;2024-01-30T07:50:15;14.02;;;11.45;;
55007;SDS011;40902;45.116;21.296;2024-01-30T07:52:42;14.73;;;11.90;;
55007;SDS011;40902;45.116;21.296;2024-01-30T07:55:08;12.27;;;10.70;;
55007;SDS011;40902;45.116;21.296;2024-01-30T07:57:34;13.73;;;10.38;;
55007;SDS011;40902;45.116;21.296;2024-01-30T08:00:02;14.70;;;10.80;;
55007;SDS011;40902;45.116;21.296;2024-01-30T08:02:28;16.00;;;11.45;;
55007;SDS011;40902;45.116;21.296;2024-01-30T08:04:54;14.13;;;10.70;;
55007;SDS011;40902;45.116;21.296;2024-01-30T08:07:20;15.32;;;10.82;;
55007;SDS011;40902;45.116;21.296;2024-01-30T08:09:47;19.25;;;11.73;;
55007;SDS011;40902;45.116;21.296;2024-01-30T08:12:13;16.02;;;11.00;;
55007;SDS011;40902;45.116;21.296;2024-01-30T08:14:39;16.67;;;10.80;;
55007;SDS011;40902;45.116;21.296;2024-01-30T08:17:06;12.80;;;9.88;;
55007;SDS011;40902;45.116;21.296;2024-01-30T08:19:32;12.30;;;10.18;;
55007;SDS011;40902;45.116;21.296;2024-01-30T08:21:58;11.93;;;9.65;;
55007;SDS011;40902;45.116;21.296;2024-01-30T08:24:24;11.35;;;9.65;;
55007;SDS011;40902;45.116;21.296;2024-01-30T08:26:50;13.75;;;10.50;;
55007;SDS011;40902;45.116;21.296;2024-01-30T08:29:16;13.60;;;10.63;;
55007;SDS011;40902;45.116;21.296;2024-01-30T08:31:42;13.32;;;10.32;;
55007;SDS011;40902;45.116;21.296;2024-01-30T08:34:07;13.80;;;10.10;;
55007;SDS011;40902;45.116;21.296;2024-01-30T08:36:33;14.30;;;11.15;;
55007;SDS011;40902;45.116;21.296;2024-01-30T08:38:59;15.77;;;11.52;;
55007;SDS011;40902;45.116;21.296;2024-01-30T08:41:25;13.90;;;11.23;;
55007;SDS011;40902;45.116;21.296;2024-01-30T08:43:52;12.38;;;10.55;;
55007;SDS011;40902;45.116;21.296;2024-01-30T08:46:20;14.13;;;10.13;;
55007;SDS011;40902;45.116;21.296;2024-01-30T08:48:46;18.05;;;12.70;;
55007;SDS011;40902;45.116;21.296;2024-01-30T08:51:12;17.63;;;12.60;;
55007;SDS011;40902;45.116;21.296;2024-01-30T08:53:40;17.10;;;12.98;;
55007;SDS011;40902;45.116;21.296;2024-01-30T08:56:06;16.80;;;11.82;;
55007;SDS011;40902;45.116;21.296;2024-01-30T08:58:32;14.43;;;10.75;;
55007;SDS011;40902;45.116;21.296;2024-01-30T09:00:58;16.63;;;11.07;;
55007;SDS011;40902;45.116;21.296;2024-01-30T09:03:24;18.85;;;12.45;;
55007;SDS011;40902;45.116;21.296;2024-01-30T09:05:50;17.40;;;12.32;;
55007;SDS011;40902;45.116;21.296;2024-01-30T09:08:16;18.08;;;12.02;;
55007;SDS011;40902;45.116;21.296;2024-01-30T09:10:41;14.40;;;10.93;;
55007;SDS011;40902;45.116;21.296;2024-01-30T09:13:07;12.85;;;10.25;;
55007;SDS011;40902;45.116;21.296;2024-01-30T09:15:33;12.55;;;9.80;;
55007;SDS011;40902;45.116;21.296;2024-01-30T09:17:59;11.88;;;9.13;;
55007;SDS011;40902;45.116;21.296;2024-01-30T09:20:24;14.18;;;10.57;;
55007;SDS011;40902;45.116;21.296;2024-01-30T09:22:50;16.00;;;12.13;;
55007;SDS011;40902;45.116;21.296;2024-01-30T09:25:16;19.10;;;13.95;;
55007;SDS011;40902;45.116;21.296;2024-01-30T09:27:43;17.70;;;12.70;;
55007;SDS011;40902;45.116;21.296;2024-01-30T09:30:09;13.95;;;11.45;;
55007;SDS011;40902;45.116;21.296;2024-01-30T09:32:35;12.65;;;9.88;;
55007;SDS011;40902;45.116;21.296;2024-01-30T09:35:01;13.48;;;11.05;;
55007;SDS011;40902;45.116;21.296;2024-01-30T09:37:26;13.77;;;10.07;;
55007;SDS011;40902;45.116;21.296;2024-01-30T09:39:52;11.00;;;8.68;;
55007;SDS011;40902;45.116;21.296;2024-01-30T09:42:26;10.95;;;8.93;;
55007;SDS011;40902;45.116;21.296;2024-01-30T09:45:02;11.55;;;8.82;;
55007;SDS011;40902;45.116;21.296;2024-01-30T09:47:32;10.65;;;9.02;;
55007;SDS011;40902;45.116;21.296;2024-01-30T09:50:15;11.05;;;8.77;;
55007;SDS011;40902;45.116;21.296;2024-01-30T09:52:41;10.77;;;8.50;;
55007;SDS011;40902;45.116;21.296;2024-01-30T09:55:10;12.13;;;9.60;;
55007;SDS011;40902;45.116;21.296;2024-01-30T09:57:36;12.85;;;9.35;;
55007;SDS011;40902;45.116;21.296;2024-01-30T10:00:03;11.00;;;8.65;;
55007;SDS011;40902;45.116;21.296;2024-01-30T10:02:32;10.43;;;8.07;;
55007;SDS011;40902;45.116;21.296;2024-01-30T10:04:58;10.85;;;8.30;;
55007;SDS011;40902;45.116;21.296;2024-01-30T10:07:25;11.65;;;8.82;;
55007;SDS011;40902;45.116;21.296;2024-01-30T10:09:51;11.35;;;8.80;;
55007;SDS011;40902;45.116;21.296;2024-01-30T10:12:18;11.48;;;8.50;;
55007;SDS011;40902;45.116;21.296;2024-01-30T10:14:44;13.60;;;9.00;;
55007;SDS011;40902;45.116;21.296;2024-01-30T10:17:10;13.02;;;8.85;;
55007;SDS011;40902;45.116;21.296;2024-01-30T10:19:37;13.82;;;9.23;;
55007;SDS011;40902;45.116;21.296;2024-01-30T10:22:04;14.43;;;10.48;;
55007;SDS011;40902;45.116;21.296;2024-01-30T10:24:30;14.32;;;10.25;;
55007;SDS011;40902;45.116;21.296;2024-01-30T10:26:56;15.85;;;10.57;;
55007;SDS011;40902;45.116;21.296;2024-01-30T10:29:26;17.40;;;11.68;;
55007;SDS011;40902;45.116;21.296;2024-01-30T10:32:00;16.80;;;11.70;;
55007;SDS011;40902;45.116;21.296;2024-01-30T10:34:27;13.40;;;10.32;;
55007;SDS011;40902;45.116;21.296;2024-01-30T10:39:40;11.05;;;8.93;;
55007;SDS011;40902;45.116;21.296;2024-01-30T10:42:07;14.27;;;11.18;;
55007;SDS011;40902;45.116;21.296;2024-01-30T10:45:00;13.50;;;11.38;;
55007;SDS011;40902;45.116;21.296;2024-01-30T10:47:59;11.90;;;9.15;;
55007;SDS011;40902;45.116;21.296;2024-01-30T10:50:25;10.55;;;8.90;;
55007;SDS011;40902;45.116;21.296;2024-01-30T10:52:51;11.60;;;9.00;;
55007;SDS011;40902;45.116;21.296;2024-01-30T10:55:18;12.38;;;8.60;;
55007;SDS011;40902;45.116;21.296;2024-01-30T10:57:45;11.50;;;8.60;;
55007;SDS011;40902;45.116;21.296;2024-01-30T11:00:11;13.55;;;9.77;;
55007;SDS011;40902;45.116;21.296;2024-01-30T11:02:41;12.45;;;8.55;;
55007;SDS011;40902;45.116;21.296;2024-01-30T11:05:09;12.45;;;8.68;;
55007;SDS011;40902;45.116;21.296;2024-01-30T11:07:35;14.57;;;10.52;;
55007;SDS011;40902;45.116;21.296;2024-01-30T11:10:02;11.05;;;8.73;;
55007;SDS011;40902;45.116;21.296;2024-01-30T11:12:32;10.55;;;8.30;;
55007;SDS011;40902;45.116;21.296;2024-01-30T11:15:05;10.18;;;8.18;;
55007;SDS011;40902;45.116;21.296;2024-01-30T11:20:19;13.82;;;10.25;;
55007;SDS011;40902;45.116;21.296;2024-01-30T11:22:56;10.82;;;7.95;;
55007;SDS011;40902;45.116;21.296;2024-01-30T11:25:23;10.32;;;7.97;;
55007;SDS011;40902;45.116;21.296;2024-01-30T11:27:50;11.40;;;8.98;;
55007;SDS011;40902;45.116;21.296;2024-01-30T11:30:24;9.95;;;7.70;;
55007;SDS011;40902;45.116;21.296;2024-01-30T11:33:01;12.77;;;9.43;;
55007;SDS011;40902;45.116;21.296;2024-01-30T11:35:34;10.63;;;8.82;;
55007;SDS011;40902;45.116;21.296;2024-01-30T11:38:02;9.95;;;7.93;;
55007;SDS011;40902;45.116;21.296;2024-01-30T11:40:29;9.73;;;7.53;;
55007;SDS011;40902;45.116;21.296;2024-01-30T11:42:56;10.32;;;8.35;;
55007;SDS011;40902;45.116;21.296;2024-01-30T11:45:23;10.60;;;8.38;;
55007;SDS011;40902;45.116;21.296;2024-01-30T11:47:49;9.30;;;7.70;;
55007;SDS011;40902;45.116;21.296;2024-01-30T11:50:16;14.00;;;8.73;;
55007;SDS011;40902;45.116;21.296;2024-01-30T11:52:42;12.73;;;8.48;;
55007;SDS011;40902;45.116;21.296;2024-01-30T11:55:10;11.40;;;8.32;;
55007;SDS011;40902;45.116;21.296;2024-01-30T11:57:39;11.15;;;7.90;;
55007;SDS011;40902;45.116;21.296;2024-01-30T12:00:05;10.93;;;8.38;;
55007;SDS011;40902;45.116;21.296;2024-01-30T12:02:38;10.88;;;8.70;;
55007;SDS011;40902;45.116;21.296;2024-01-30T12:05:07;11.38;;;8.27;;
55007;SDS011;40902;45.116;21.296;2024-01-30T12:07:34;11.57;;;8.40;;
55007;SDS011;40902;45.116;21.296;2024-01-30T12:10:01;11.60;;;8.35;;
55007;SDS011;40902;45.116;21.296;2024-01-30T12:12:28;11.40;;;7.97;;
55007;SDS011;40902;45.116;21.296;2024-01-30T12:14:55;9.85;;;7.88;;
55007;SDS011;40902;45.116;21.296;2024-01-30T12:17:26;9.93;;;7.70;;
55007;SDS011;40902;45.116;21.296;2024-01-30T12:22:38;9.82;;;7.30;;
55007;SDS011;40902;45.116;21.296;2024-01-30T12:25:23;10.48;;;7.85;;
55007;SDS011;40902;45.116;21.296;2024-01-30T12:27:50;13.35;;;8.20;;
55007;SDS011;40902;45.116;21.296;2024-01-30T12:30:16;10.07;;;7.75;;
55007;SDS011;40902;45.116;21.296;2024-01-30T12:32:46;9.05;;;6.90;;
55007;SDS011;40902;45.116;21.296;2024-01-30T12:35:17;8.70;;;7.18;;
55007;SDS011;40902;45.116;21.296;2024-01-30T12:37:45;10.38;;;7.50;;
55007;SDS011;40902;45.116;21.296;2024-01-30T12:40:13;8.10;;;6.60;;
55007;SDS011;40902;45.116;21.296;2024-01-30T12:42:42;8.23;;;6.53;;
55007;SDS011;40902;45.116;21.296;2024-01-30T12:45:13;9.27;;;7.03;;
55007;SDS011;40902;45.116;21.296;2024-01-30T12:47:40;9.98;;;7.75;;
55007;SDS011;40902;45.116;21.296;2024-01-30T12:50:06;13.35;;;7.88;;
55007;SDS011;40902;45.116;21.296;2024-01-30T12:52:32;10.13;;;7.22;;
55007;SDS011;40902;45.116;21.296;2024-01-30T12:54:58;9.73;;;7.32;;
55007;SDS011;40902;45.116;21.296;2024-01-30T12:57:24;8.40;;;6.93;;
55007;SDS011;40902;45.116;21.296;2024-01-30T12:59:50;11.30;;;7.88;;
55007;SDS011;40902;45.116;21.296;2024-01-30T13:02:15;11.98;;;9.23;;
55007;SDS011;40902;45.116;21.296;2024-01-30T13:04:42;12.05;;;8.90;;
55007;SDS011;40902;45.116;21.296;2024-01-30T13:07:08;13.50;;;9.70;;
55007;SDS011;40902;45.116;21.296;2024-01-30T13:09:33;10.57;;;8.20;;
55007;SDS011;40902;45.116;21.296;2024-01-30T13:11:59;11.43;;;8.65;;
55007;SDS011;40902;45.116;21.296;2024-01-30T13:14:25;11.50;;;8.90;;
55007;SDS011;40902;45.116;21.296;2024-01-30T13:16:51;12.55;;;10.00;;
55007;SDS011;40902;45.116;21.296;2024-01-30T13:19:17;12.25;;;9.30;;
55007;SDS011;40902;45.116;21.296;2024-01-30T13:21:43;10.65;;;8.45;;
55007;SDS011;40902;45.116;21.296;2024-01-30T13:24:09;12.50;;;11.07;;
55007;SDS011;40902;45.116;21.296;2024-01-30T13:26:35;12.73;;;9.00;;
55007;SDS011;40902;45.116;21.296;2024-01-30T13:29:01;11.32;;;8.68;;
55007;SDS011;40902;45.116;21.296;2024-01-30T13:31:28;10.75;;;8.48;;
55007;SDS011;40902;45.116;21.296;2024-01-30T13:33:54;11.20;;;9.00;;
55007;SDS011;40902;45.116;21.296;2024-01-30T13:36:20;14.07;;;10.13;;
55007;SDS011;40902;45.116;21.296;2024-01-30T13:38:46;15.07;;;11.73;;
55007;SDS011;40902;45.116;21.296;2024-01-30T13:41:12;15.02;;;11.30;;
55007;SDS011;40902;45.116;21.296;2024-01-30T13:43:38;10.27;;;7.97;;
55007;SDS011;40902;45.116;21.296;2024-01-30T13:46:03;10.15;;;7.63;;
55007;SDS011;40902;45.116;21.296;2024-01-30T13:48:30;10.75;;;8.32;;
55007;SDS011;40902;45.116;21.296;2024-01-30T13:50:56;9.40;;;7.85;;
55007;SDS011;40902;45.116;21.296;2024-01-30T13:53:22;8.95;;;8.02;;
55007;SDS011;40902;45.116;21.296;2024-01-30T13:55:48;8.38;;;7.40;;
55007;SDS011;40902;45.116;21.296;2024-01-30T13:58:13;14.68;;;9.85;;
55007;SDS011;40902;45.116;21.296;2024-01-30T14:00:42;8.20;;;6.55;;
55007;SDS011;40902;45.116;21.296;2024-01-30T14:03:08;13.32;;;7.85;;
55007;SDS011;40902;45.116;21.296;2024-01-30T14:05:34;11.07;;;8.25;;
55007;SDS011;40902;45.116;21.296;2024-01-30T14:08:00;9.70;;;7.45;;
55007;SDS011;40902;45.116;21.296;2024-01-30T14:10:26;10.18;;;7.80;;
55007;SDS011;40902;45.116;21.296;2024-01-30T14:12:52;9.82;;;7.68;;
55007;SDS011;40902;45.116;21.296;2024-01-30T14:15:17;9.75;;;7.07;;
55007;SDS011;40902;45.116;21.296;2024-01-30T14:17:43;8.35;;;6.32;;
55007;SDS011;40902;45.116;21.296;2024-01-30T14:20:11;8.73;;;6.88;;
55007;SDS011;40902;45.116;21.296;2024-01-30T14:22:37;8.63;;;6.68;;